createdAt,value
2022-10-03T00:00:21.521Z,9.747506
2022-10-03T00:01:21.606Z,9.747531
2022-10-03T00:02:21.503Z,9.747480
2022-10-03T00:03:21.493Z,9.747541
2022-10-03T00:04:21.487Z,9.747474
2022-10-03T00:05:21.482Z,9.747454
2022-10-03T00:06:21.502Z,9.747431
2022-10-03T00:07:21.459Z,9.747475
2022-10-03T00:08:21.457Z,9.747382
2022-10-03T00:09:21.449Z,9.747396
2022-10-03T00:10:21.436Z,9.747262
2022-10-03T00:11:21.454Z,9.747351
2022-10-03T00:12:21.423Z,9.747490
2022-10-03T00:13:21.419Z,9.747506
2022-10-03T00:14:21.405Z,9.747480
2022-10-03T00:15:21.396Z,9.747482
2022-10-03T00:16:21.457Z,9.747436
2022-10-03T00:17:22.381Z,9.747382
2022-10-03T00:18:21.373Z,9.747472
2022-10-03T00:19:21.379Z,9.747503
2022-10-03T00:20:21.367Z,9.747562
2022-10-03T00:21:21.378Z,9.747438
2022-10-03T00:22:21.351Z,9.747563
2022-10-03T00:23:21.339Z,9.747469
2022-10-03T00:24:21.348Z,9.747463
2022-10-03T00:25:21.347Z,9.747387
2022-10-03T00:26:21.314Z,9.747377
2022-10-03T00:27:21.305Z,9.747426
2022-10-03T00:28:21.387Z,9.747320
2022-10-03T00:29:21.297Z,9.747286
2022-10-03T00:30:21.309Z,9.747362
2022-10-03T00:31:21.356Z,9.747468
2022-10-03T00:32:21.262Z,9.747373
2022-10-03T00:33:21.259Z,9.747525
2022-10-03T00:34:21.250Z,9.747494
2022-10-03T00:35:21.264Z,9.747451
2022-10-03T00:36:21.240Z,9.747317
2022-10-03T00:37:21.226Z,9.747210
2022-10-03T00:38:21.225Z,9.747357
2022-10-03T00:39:21.209Z,9.747452
2022-10-03T00:40:21.228Z,9.747550
2022-10-03T00:41:21.195Z,9.747516
2022-10-03T00:42:21.191Z,9.747444
2022-10-03T00:43:21.177Z,9.747409
2022-10-03T00:44:21.169Z,9.747460
2022-10-03T00:45:21.195Z,9.747511
2022-10-03T00:46:21.188Z,9.747472
2022-10-03T00:47:21.202Z,9.747443
2022-10-03T00:48:21.168Z,9.747491
2022-10-03T00:49:21.138Z,9.747487
2022-10-03T00:50:21.160Z,9.747420
2022-10-03T00:51:21.118Z,9.747491
2022-10-03T00:52:21.112Z,9.747483
2022-10-03T00:53:21.107Z,9.747469
2022-10-03T00:54:21.097Z,9.747505
2022-10-03T00:55:21.088Z,9.747452
2022-10-03T00:56:21.110Z,9.747501
2022-10-03T00:57:21.079Z,9.747484
2022-10-03T00:58:21.072Z,9.747484
2022-10-03T00:59:21.066Z,9.747456
2022-10-03T01:00:21.063Z,9.747468
2022-10-03T01:01:21.165Z,9.747470
2022-10-03T01:02:21.126Z,9.747489
2022-10-03T01:03:21.034Z,9.747414
2022-10-03T01:04:21.019Z,9.747433
2022-10-03T01:05:21.011Z,9.747540
2022-10-03T01:06:21.034Z,9.747521
2022-10-03T01:07:20.998Z,9.747477
2022-10-03T01:08:20.989Z,9.747478
2022-10-03T01:09:20.986Z,9.747455
2022-10-03T01:10:20.977Z,9.747431
2022-10-03T01:11:20.993Z,9.747427
2022-10-03T01:12:20.954Z,9.747498
2022-10-03T01:13:20.947Z,9.747542
2022-10-03T01:14:20.943Z,9.747480
2022-10-03T01:15:20.944Z,9.747443
2022-10-03T01:16:21.051Z,9.747459
2022-10-03T01:17:20.924Z,9.747377
2022-10-03T01:18:20.916Z,9.747396
2022-10-03T01:19:20.908Z,9.747484
2022-10-03T01:20:20.901Z,9.747495
2022-10-03T01:21:20.926Z,9.747458
2022-10-03T01:22:20.879Z,9.747338
2022-10-03T01:23:20.875Z,9.747412
2022-10-03T01:24:20.871Z,9.747477
2022-10-03T01:25:20.871Z,9.747395
2022-10-03T01:26:20.884Z,9.747376
2022-10-03T01:27:20.851Z,9.747440
2022-10-03T01:28:20.906Z,9.747457
2022-10-03T01:29:20.834Z,9.747587
2022-10-03T01:30:20.823Z,9.747493
2022-10-03T01:31:20.869Z,9.747498
2022-10-03T01:32:20.820Z,9.747404
2022-10-03T01:33:20.810Z,9.747299
2022-10-03T01:34:20.796Z,9.747399
2022-10-03T01:35:20.789Z,9.747504
2022-10-03T01:36:20.800Z,9.747421
2022-10-03T01:37:20.786Z,9.747447
2022-10-03T01:38:20.787Z,9.747391
2022-10-03T01:39:20.753Z,9.747550
2022-10-03T01:40:20.752Z,9.747635
2022-10-03T01:41:20.766Z,9.747468
2022-10-03T01:42:20.742Z,9.747532
2022-10-03T01:43:20.733Z,9.747556
2022-10-03T01:44:20.718Z,9.747531
2022-10-03T01:45:20.708Z,9.747539
2022-10-03T01:46:20.790Z,9.747560
2022-10-03T01:47:20.692Z,9.747386
2022-10-03T01:48:20.684Z,9.747398
2022-10-03T01:49:20.677Z,9.747477
2022-10-03T01:50:20.707Z,9.747362
2022-10-03T01:51:20.664Z,9.747520
2022-10-03T01:52:20.656Z,9.747555
2022-10-03T01:53:20.645Z,9.747480
2022-10-03T01:54:20.649Z,9.747513
2022-10-03T01:55:20.660Z,9.747519
2022-10-03T01:56:20.629Z,9.747481
2022-10-03T01:57:20.617Z,9.747461
2022-10-03T01:58:20.616Z,9.747422
2022-10-03T01:59:20.608Z,9.747344
2022-10-03T02:00:20.672Z,9.747369
2022-10-03T02:01:20.678Z,9.747431
2022-10-03T02:02:20.598Z,9.747468
2022-10-03T02:03:20.581Z,9.747436
2022-10-03T02:04:20.570Z,9.747408
2022-10-03T02:05:20.589Z,9.747429
2022-10-03T02:06:20.563Z,9.747477
2022-10-03T02:07:20.545Z,9.747478
2022-10-03T02:08:20.542Z,9.747460
2022-10-03T02:09:20.568Z,9.747531
2022-10-03T02:10:20.525Z,9.747551
2022-10-03T02:11:20.517Z,9.747445
2022-10-03T02:12:20.511Z,9.747471
2022-10-03T02:13:20.500Z,9.747498
2022-10-03T02:14:20.524Z,9.747486
2022-10-03T02:15:20.492Z,9.747466
2022-10-03T02:16:20.523Z,9.747411
2022-10-03T02:17:20.474Z,9.747469
2022-10-03T02:18:20.460Z,9.747482
2022-10-03T02:19:20.504Z,9.747398
2022-10-03T02:20:20.458Z,9.747280
2022-10-03T02:21:20.443Z,9.747464
2022-10-03T02:22:20.460Z,9.747468
2022-10-03T02:23:20.422Z,9.747367
2022-10-03T02:24:20.416Z,9.747409
2022-10-03T02:25:20.433Z,9.747443
2022-10-03T02:26:20.403Z,9.747471
2022-10-03T02:27:20.395Z,9.747253
2022-10-03T02:28:20.504Z,9.747333
2022-10-03T02:29:20.377Z,9.747367
2022-10-03T02:30:20.395Z,9.747387
2022-10-03T02:31:20.397Z,9.747392
2022-10-03T02:32:20.354Z,9.747416
2022-10-03T02:33:20.344Z,9.747424
2022-10-03T02:34:20.343Z,9.747334
2022-10-03T02:35:20.357Z,9.747272
2022-10-03T02:36:20.324Z,9.747352
2022-10-03T02:37:20.319Z,9.747472
2022-10-03T02:38:20.302Z,9.747305
2022-10-03T02:39:20.306Z,9.747340
2022-10-03T02:40:20.315Z,9.747349
2022-10-03T02:41:20.284Z,9.747345
2022-10-03T02:42:20.269Z,9.747346
2022-10-03T02:43:20.267Z,9.747289
2022-10-03T02:44:20.262Z,9.747292
2022-10-03T02:45:20.336Z,9.747279
2022-10-03T02:46:20.254Z,9.747288
2022-10-03T02:47:20.237Z,9.747242
2022-10-03T02:48:31.384Z,9.747288
2022-10-03T02:49:22.221Z,9.747350
2022-10-03T02:50:20.245Z,9.747389
2022-10-03T02:51:20.208Z,9.747251
2022-10-03T02:52:20.204Z,9.747309
2022-10-03T02:53:20.207Z,9.747335
2022-10-03T02:54:20.206Z,9.747275
2022-10-03T02:55:20.210Z,9.747282
2022-10-03T02:56:20.179Z,9.747421
2022-10-03T02:57:20.160Z,9.747228
2022-10-03T02:58:20.171Z,9.747313
2022-10-03T02:59:20.149Z,9.747317
2022-10-03T03:00:20.170Z,9.747269
2022-10-03T03:01:20.196Z,9.747347
2022-10-03T03:02:20.201Z,9.747355
2022-10-03T03:03:20.126Z,9.747358
2022-10-03T03:04:20.119Z,9.747294
2022-10-03T03:05:20.144Z,9.747225
2022-10-03T03:06:20.103Z,9.747402
2022-10-03T03:07:20.108Z,9.747252
2022-10-03T03:08:20.085Z,9.747377
2022-10-03T03:09:20.081Z,9.747312
2022-10-03T03:10:20.107Z,9.747356
2022-10-03T03:11:20.069Z,9.747309
2022-10-03T03:12:20.058Z,9.747291
2022-10-03T03:13:20.048Z,9.747339
2022-10-03T03:14:20.042Z,9.747392
2022-10-03T03:15:20.037Z,9.747249
2022-10-03T03:16:20.087Z,9.747156
2022-10-03T03:17:21.017Z,9.747284
2022-10-03T03:18:20.011Z,9.747265
2022-10-03T03:19:20.005Z,9.747286
2022-10-03T03:20:19.998Z,9.747297
2022-10-03T03:21:20.020Z,9.747274
2022-10-03T03:22:19.981Z,9.747274
2022-10-03T03:23:19.977Z,9.747234
2022-10-03T03:24:19.982Z,9.747292
2022-10-03T03:25:19.950Z,9.747287
2022-10-03T03:26:20.973Z,9.747244
2022-10-03T03:27:19.950Z,9.747226
2022-10-03T03:28:19.966Z,9.747429
2022-10-03T03:29:19.928Z,9.747296
2022-10-03T03:30:19.918Z,9.747193
2022-10-03T03:31:19.976Z,9.747286
2022-10-03T03:32:19.907Z,9.747260
2022-10-03T03:33:19.910Z,9.747263
2022-10-03T03:34:19.894Z,9.747295
2022-10-03T03:35:19.885Z,9.747276
2022-10-03T03:36:19.898Z,9.747282
2022-10-03T03:37:19.880Z,9.747324
2022-10-03T03:38:19.864Z,9.747350
2022-10-03T03:39:19.853Z,9.747312
2022-10-03T03:40:19.848Z,9.747357
2022-10-03T03:41:19.879Z,9.747362
2022-10-03T03:42:19.830Z,9.747321
2022-10-03T03:43:19.834Z,9.747271
2022-10-03T03:44:19.822Z,9.747325
2022-10-03T03:45:19.944Z,9.747313
2022-10-03T03:46:19.834Z,9.747273
2022-10-03T03:47:19.799Z,9.747284
2022-10-03T03:48:19.788Z,9.747326
2022-10-03T03:49:19.797Z,9.747213
2022-10-03T03:50:19.775Z,9.747267
2022-10-03T03:51:19.799Z,9.747373
2022-10-03T03:52:19.761Z,9.747157
2022-10-03T03:53:19.753Z,9.747206
2022-10-03T03:54:19.747Z,9.747248
2022-10-03T03:55:19.739Z,9.747224
2022-10-03T03:56:19.758Z,9.747332
2022-10-03T03:57:52.438Z,9.747336
2022-10-03T03:58:19.709Z,9.747179
2022-10-03T03:59:19.701Z,9.747313
2022-10-03T04:00:19.701Z,9.747331
2022-10-03T04:01:19.796Z,9.747371
2022-10-03T04:02:19.727Z,9.747381
2022-10-03T04:03:19.684Z,9.747360
2022-10-03T04:04:19.670Z,9.747389
2022-10-03T04:05:19.658Z,9.747373
2022-10-03T04:06:19.677Z,9.747351
2022-10-03T04:07:21.817Z,9.747355
2022-10-03T04:08:20.635Z,9.747414
2022-10-03T04:09:19.624Z,9.747377
2022-10-03T04:10:20.616Z,9.747396
2022-10-03T04:11:19.645Z,9.747377
2022-10-03T04:12:19.611Z,9.747419
2022-10-03T04:13:19.600Z,9.747305
2022-10-03T04:14:19.594Z,9.747372
2022-10-03T04:15:19.589Z,9.747430
2022-10-03T04:16:19.629Z,9.747406
2022-10-03T04:17:19.576Z,9.747423
2022-10-03T04:18:19.578Z,9.747488
2022-10-03T04:19:19.563Z,9.747467
2022-10-03T04:20:19.547Z,9.747348
2022-10-03T04:21:19.571Z,9.747353
2022-10-03T04:22:19.545Z,9.747371
2022-10-03T04:23:19.533Z,9.747355
2022-10-03T04:24:19.527Z,9.747302
2022-10-03T04:25:19.519Z,9.747343
2022-10-03T04:26:19.537Z,9.747337
2022-10-03T04:27:19.500Z,9.747361
2022-10-03T04:28:19.640Z,9.747314
2022-10-03T04:29:19.492Z,9.747379
2022-10-03T04:30:19.483Z,9.747397
2022-10-03T04:31:19.559Z,9.747392
2022-10-03T04:32:19.466Z,9.747356
2022-10-03T04:33:19.459Z,9.747412
2022-10-03T04:34:19.447Z,9.747410
2022-10-03T04:35:19.441Z,9.747415
2022-10-03T04:36:19.469Z,9.747319
2022-10-03T04:37:19.422Z,9.747420
2022-10-03T04:38:19.417Z,9.747357
2022-10-03T04:39:19.417Z,9.747239
2022-10-03T04:40:19.408Z,9.747375
2022-10-03T04:41:19.446Z,9.747313
2022-10-03T04:42:19.388Z,9.747334
2022-10-03T04:43:19.387Z,9.747385
2022-10-03T04:44:19.377Z,9.747360
2022-10-03T04:45:19.373Z,9.747363
2022-10-03T04:46:19.410Z,9.747381
2022-10-03T04:47:19.381Z,9.747314
2022-10-03T04:48:19.349Z,9.747436
2022-10-03T04:49:19.349Z,9.747410
2022-10-03T04:50:19.326Z,9.747316
2022-10-03T04:51:19.337Z,9.747347
2022-10-03T04:52:19.341Z,9.747353
2022-10-03T04:53:19.341Z,9.747349
2022-10-03T04:54:19.302Z,9.747417
2022-10-03T04:55:19.302Z,9.747415
2022-10-03T04:56:19.290Z,9.747363
2022-10-03T04:57:19.287Z,9.747284
2022-10-03T04:58:19.299Z,9.747209
2022-10-03T04:59:19.267Z,9.747337
2022-10-03T05:00:19.259Z,9.747367
2022-10-03T05:01:19.267Z,9.747390
2022-10-03T05:02:19.285Z,9.747464
2022-10-03T05:03:19.271Z,9.747334
2022-10-03T05:04:19.223Z,9.747343
2022-10-03T05:05:19.233Z,9.747456
2022-10-03T05:06:19.210Z,9.747396
2022-10-03T05:07:19.212Z,9.747324
2022-10-03T05:08:19.223Z,9.747355
2022-10-03T05:09:19.196Z,9.747398
2022-10-03T05:10:19.186Z,9.747399
2022-10-03T05:11:19.180Z,9.747379
2022-10-03T05:12:19.168Z,9.747313
2022-10-03T05:13:19.194Z,9.747384
2022-10-03T05:14:19.151Z,9.747471
2022-10-03T05:15:19.148Z,9.747252
2022-10-03T05:16:19.199Z,9.747362
2022-10-03T05:17:19.130Z,9.747407
2022-10-03T05:18:22.277Z,9.747467
2022-10-03T05:19:20.114Z,9.747368
2022-10-03T05:20:19.237Z,9.747332
2022-10-03T05:21:19.116Z,9.747323
2022-10-03T05:22:19.116Z,9.747334
2022-10-03T05:23:19.184Z,9.747372
2022-10-03T05:24:19.096Z,9.747330
2022-10-03T05:25:19.125Z,9.747377
2022-10-03T05:26:43.465Z,9.747485
2022-10-03T05:27:21.081Z,9.747313
2022-10-03T05:28:19.201Z,9.747385
2022-10-03T05:29:19.125Z,9.747402
2022-10-03T05:30:19.059Z,9.747384
2022-10-03T05:31:19.093Z,9.747365
2022-10-03T05:32:19.047Z,9.747416
2022-10-03T05:33:19.061Z,9.747403
2022-10-03T05:34:19.025Z,9.747438
2022-10-03T05:35:19.031Z,9.747427
2022-10-03T05:36:19.020Z,9.747424
2022-10-03T05:37:19.003Z,9.747370
2022-10-03T05:38:19.046Z,9.747266
2022-10-03T05:39:19.054Z,9.747243
2022-10-03T05:40:19.002Z,9.747312
2022-10-03T05:41:22.678Z,9.747365
2022-10-03T05:42:23.853Z,9.747334
2022-10-03T05:43:20.251Z,9.747419
2022-10-03T05:44:18.952Z,9.747353
2022-10-03T05:45:18.914Z,9.747392
2022-10-03T05:46:18.956Z,9.747349
2022-10-03T05:47:18.926Z,9.747291
2022-10-03T05:48:19.142Z,9.747330
2022-10-03T05:49:18.898Z,9.747394
2022-10-03T05:50:18.896Z,9.747425
2022-10-03T05:51:18.889Z,9.747393
2022-10-03T05:52:18.882Z,9.747479
2022-10-03T05:53:18.988Z,9.747407
2022-10-03T05:54:18.865Z,9.747494
2022-10-03T05:55:19.857Z,9.747303
2022-10-03T05:56:18.837Z,9.747585
2022-10-03T05:57:18.844Z,9.747483
2022-10-03T05:58:18.856Z,9.747471
2022-10-03T05:59:18.854Z,9.747540
2022-10-03T06:00:18.815Z,9.747459
2022-10-03T06:01:18.830Z,9.747491
2022-10-03T06:02:18.912Z,9.747453
2022-10-03T06:03:18.850Z,9.747345
2022-10-03T06:04:18.781Z,9.747423
2022-10-03T06:05:18.769Z,9.747423
2022-10-03T06:06:18.780Z,9.747388
2022-10-03T06:07:18.784Z,9.747319
2022-10-03T06:08:19.590Z,9.747367
2022-10-03T06:09:18.725Z,9.747228
2022-10-03T06:10:18.724Z,9.747285
2022-10-03T06:11:18.824Z,9.747345
2022-10-03T06:12:18.729Z,9.747480
2022-10-03T06:13:18.703Z,9.747312
2022-10-03T06:14:18.693Z,9.747306
2022-10-03T06:15:18.700Z,9.747355
2022-10-03T06:16:19.661Z,9.747442
2022-10-03T06:17:18.668Z,9.747478
2022-10-03T06:18:18.837Z,9.747433
2022-10-03T06:19:18.682Z,9.747374
2022-10-03T06:20:18.647Z,9.747378
2022-10-03T06:21:18.632Z,9.747254
2022-10-03T06:22:18.633Z,9.747456
2022-10-03T06:23:18.653Z,9.747415
2022-10-03T06:24:18.612Z,9.747443
2022-10-03T06:25:18.613Z,9.747331
2022-10-03T06:26:18.601Z,9.747277
2022-10-03T06:27:18.695Z,9.747337
2022-10-03T06:28:18.627Z,9.747300
2022-10-03T06:29:18.586Z,9.747262
2022-10-03T06:30:18.602Z,9.747444
2022-10-03T06:31:18.617Z,9.747469
2022-10-03T06:32:18.589Z,9.747607
2022-10-03T06:33:18.559Z,9.747455
2022-10-03T06:34:18.614Z,9.747370
2022-10-03T06:35:18.533Z,9.747387
2022-10-03T06:36:18.568Z,9.747357
2022-10-03T06:37:18.590Z,9.747310
2022-10-03T06:38:18.518Z,9.747403
2022-10-03T06:39:18.502Z,9.747520
2022-10-03T06:40:18.498Z,9.747478
2022-10-03T06:41:18.492Z,9.747339
2022-10-03T06:42:18.522Z,9.747276
2022-10-03T06:43:18.522Z,9.747397
2022-10-03T06:44:18.469Z,9.747423
2022-10-03T06:45:18.456Z,9.747433
2022-10-03T06:46:18.493Z,9.747450
2022-10-03T06:47:18.438Z,9.747359
2022-10-03T06:48:18.477Z,9.747372
2022-10-03T06:49:18.469Z,9.747539
2022-10-03T06:50:18.425Z,9.747542
2022-10-03T06:51:18.634Z,9.747451
2022-10-03T06:52:18.404Z,9.747406
2022-10-03T06:53:18.421Z,9.747474
2022-10-03T06:54:18.387Z,9.747395
2022-10-03T06:55:18.374Z,9.747381
2022-10-03T06:56:18.372Z,9.747414
2022-10-03T06:57:18.367Z,9.747581
2022-10-03T06:58:18.920Z,9.747545
2022-10-03T06:59:18.347Z,9.747508
2022-10-03T07:00:18.990Z,9.747552
2022-10-03T07:01:18.419Z,9.747540
2022-10-03T07:02:18.455Z,9.747424
2022-10-03T07:03:18.321Z,9.747496
2022-10-03T07:04:18.309Z,9.747519
2022-10-03T07:05:18.426Z,9.747450
2022-10-03T07:06:18.307Z,9.747511
2022-10-03T07:07:18.642Z,9.747386
2022-10-03T07:08:18.282Z,9.747326
2022-10-03T07:09:18.386Z,9.747411
2022-10-03T07:10:18.267Z,9.747422
2022-10-03T07:11:18.263Z,9.747426
2022-10-03T07:12:18.311Z,9.747357
2022-10-03T07:13:18.246Z,9.747513
2022-10-03T07:14:18.249Z,9.747527
2022-10-03T07:15:18.225Z,9.747413
2022-10-03T07:16:26.983Z,9.747457
2022-10-03T07:17:20.343Z,9.747384
2022-10-03T07:18:18.234Z,9.747479
2022-10-03T07:19:18.200Z,9.747439
2022-10-03T07:20:18.196Z,9.747526
2022-10-03T07:21:18.192Z,9.747420
2022-10-03T07:22:18.226Z,9.747418
2022-10-03T07:23:18.203Z,9.747458
2022-10-03T07:24:19.163Z,9.747382
2022-10-03T07:25:18.189Z,9.747420
2022-10-03T07:26:18.156Z,9.747555
2022-10-03T07:27:18.179Z,9.747385
2022-10-03T07:28:18.324Z,9.747351
2022-10-03T07:29:18.363Z,9.747247
2022-10-03T07:30:18.121Z,9.747351
2022-10-03T07:31:18.160Z,9.747188
2022-10-03T07:32:18.171Z,9.747378
2022-10-03T07:33:18.098Z,9.747487
2022-10-03T07:34:18.226Z,9.747443
2022-10-03T07:35:18.082Z,9.747451
2022-10-03T07:36:18.072Z,9.747405
2022-10-03T07:37:18.161Z,9.747042
2022-10-03T07:38:18.072Z,9.747049
2022-10-03T07:39:18.057Z,9.747271
2022-10-03T07:40:18.046Z,9.747620
2022-10-03T07:41:18.085Z,9.747335
2022-10-03T07:42:18.052Z,9.747482
2022-10-03T07:43:18.021Z,9.747311
2022-10-03T07:44:18.024Z,9.747271
2022-10-03T07:45:17.998Z,9.747208
2022-10-03T07:46:18.090Z,9.747265
2022-10-03T07:47:18.025Z,9.747285
2022-10-03T07:48:17.982Z,9.747284
2022-10-03T07:49:18.688Z,9.747870
2022-10-03T07:50:18.968Z,9.747622
2022-10-03T07:51:17.982Z,9.747309
2022-10-03T07:52:17.992Z,9.746833
2022-10-03T07:53:17.960Z,9.747223
2022-10-03T07:54:18.120Z,9.747522
2022-10-03T07:55:17.927Z,9.747023
2022-10-03T07:56:17.925Z,9.747130
2022-10-03T07:57:17.915Z,9.747025
2022-10-03T07:58:17.932Z,9.747395
2022-10-03T07:59:17.904Z,9.747182
2022-10-03T08:00:17.914Z,9.747257
2022-10-03T08:01:17.884Z,9.747019
2022-10-03T08:02:17.910Z,9.747584
2022-10-03T08:03:17.987Z,9.747042
2022-10-03T08:04:17.901Z,9.746924
2022-10-03T08:05:17.856Z,9.746819
2022-10-03T08:06:17.854Z,9.746511
2022-10-03T08:07:17.844Z,9.746501
2022-10-03T08:08:17.873Z,9.746570
2022-10-03T08:09:17.819Z,9.747066
2022-10-03T08:10:17.816Z,9.747063
2022-10-03T08:11:17.811Z,9.747493
2022-10-03T08:12:17.804Z,9.747723
2022-10-03T08:13:17.833Z,9.747366
2022-10-03T08:14:17.789Z,9.747423
2022-10-03T08:15:17.777Z,9.747518
2022-10-03T08:16:17.828Z,9.747618
2022-10-03T08:17:17.822Z,9.747565
2022-10-03T08:18:17.777Z,9.747511
2022-10-03T08:19:17.752Z,9.747514
2022-10-03T08:20:17.768Z,9.747268
2022-10-03T08:21:17.737Z,9.747026
2022-10-03T08:22:17.723Z,9.747279
2022-10-03T08:23:17.749Z,9.747090
2022-10-03T08:24:17.708Z,9.747175
2022-10-03T08:25:17.697Z,9.747220
2022-10-03T08:26:17.680Z,9.747145
2022-10-03T08:27:18.689Z,9.747259
2022-10-03T08:28:17.743Z,9.747248
2022-10-03T08:29:18.665Z,9.747340
2022-10-03T08:30:17.666Z,9.747390
2022-10-03T08:31:17.678Z,9.747255
2022-10-03T08:32:17.645Z,9.747279
2022-10-03T08:33:17.675Z,9.747313
2022-10-03T08:34:17.631Z,9.747388
2022-10-03T08:35:17.653Z,9.747372
2022-10-03T08:36:17.617Z,9.747401
2022-10-03T08:37:17.619Z,9.747350
2022-10-03T08:38:17.658Z,9.747379
2022-10-03T08:39:17.600Z,9.747318
2022-10-03T08:40:17.587Z,9.747376
2022-10-03T08:41:17.595Z,9.747396
2022-10-03T08:42:17.645Z,9.747387
2022-10-03T08:43:17.677Z,9.747396
2022-10-03T08:44:17.574Z,9.747284
2022-10-03T08:45:17.552Z,9.747345
2022-10-03T08:46:17.715Z,9.747281
2022-10-03T08:47:18.407Z,9.747406
2022-10-03T08:48:17.575Z,9.747378
2022-10-03T08:49:17.563Z,9.747295
2022-10-03T08:50:17.523Z,9.747461
2022-10-03T08:51:17.538Z,9.747342
2022-10-03T08:52:17.555Z,9.747271
2022-10-03T08:53:17.672Z,9.747360
2022-10-03T08:54:17.501Z,9.747339
2022-10-03T08:55:17.496Z,9.747272
2022-10-03T08:56:17.506Z,9.747349
2022-10-03T08:57:17.469Z,9.747342
2022-10-03T08:58:17.492Z,9.747327
2022-10-03T08:59:17.446Z,9.747451
2022-10-03T09:00:17.503Z,9.747384
2022-10-03T09:01:17.518Z,9.747409
2022-10-03T09:02:17.582Z,9.747394
2022-10-03T09:03:36.791Z,9.747290
2022-10-03T09:04:19.430Z,9.747347
2022-10-03T09:05:17.424Z,9.747439
2022-10-03T09:06:17.416Z,9.747446
2022-10-03T09:07:18.698Z,9.747311
2022-10-03T09:08:18.537Z,9.747329
2022-10-03T09:09:17.573Z,9.747252
2022-10-03T09:10:17.416Z,9.747281
2022-10-03T09:11:17.457Z,9.747285
2022-10-03T09:12:17.371Z,9.747345
2022-10-03T09:13:17.446Z,9.747345
2022-10-03T09:14:17.371Z,9.747337
2022-10-03T09:15:17.389Z,9.747326
2022-10-03T09:16:18.651Z,9.747511
2022-10-03T09:17:18.337Z,9.747623
2022-10-03T09:18:17.357Z,9.747433
2022-10-03T09:19:17.391Z,9.747206
2022-10-03T09:20:17.460Z,9.747178
2022-10-03T09:21:17.319Z,9.747293
2022-10-03T09:22:17.319Z,9.747306
2022-10-03T09:23:17.329Z,9.747291
2022-10-03T09:24:17.360Z,9.747288
2022-10-03T09:25:17.273Z,9.747278
2022-10-03T09:26:17.300Z,9.747341
2022-10-03T09:27:17.272Z,9.747359
2022-10-03T09:28:19.179Z,9.747333
2022-10-03T09:29:17.254Z,9.747386
2022-10-03T09:30:17.394Z,9.747417
2022-10-03T09:31:17.298Z,9.747267
2022-10-03T09:32:17.332Z,9.747363
2022-10-03T09:33:17.266Z,9.747265
2022-10-03T09:34:17.210Z,9.747230
2022-10-03T09:35:17.202Z,9.747241
2022-10-03T09:36:17.235Z,9.747358
2022-10-03T09:37:17.294Z,9.747471
2022-10-03T09:38:17.209Z,9.747482
2022-10-03T09:39:17.361Z,9.747468
2022-10-03T09:40:17.416Z,9.747393
2022-10-03T09:41:18.156Z,9.747385
2022-10-03T09:42:17.265Z,9.747315
2022-10-03T09:43:17.212Z,9.747351
2022-10-03T09:44:17.118Z,9.747350
2022-10-03T09:45:17.162Z,9.747387
2022-10-03T09:46:17.174Z,9.747267
2022-10-03T09:47:17.087Z,9.747224
2022-10-03T09:48:17.130Z,9.747310
2022-10-03T09:49:17.067Z,9.747367
2022-10-03T09:50:17.238Z,9.747336
2022-10-03T09:51:17.060Z,9.747321
2022-10-03T09:52:17.050Z,9.747374
2022-10-03T09:53:17.078Z,9.747335
2022-10-03T09:54:17.035Z,9.747380
2022-10-03T09:55:17.037Z,9.747499
2022-10-03T09:56:17.075Z,9.747394
2022-10-03T09:57:29.553Z,9.747403
2022-10-03T09:58:16.993Z,9.747367
2022-10-03T09:59:17.017Z,9.747346
2022-10-03T10:00:17.067Z,9.747245
2022-10-03T10:01:17.031Z,9.747368
2022-10-03T10:02:16.965Z,9.747335
2022-10-03T10:03:16.962Z,9.747292
2022-10-03T10:04:22.097Z,9.747432
2022-10-03T10:05:17.935Z,9.747358
2022-10-03T10:06:17.377Z,9.747486
2022-10-03T10:07:16.919Z,9.747367
2022-10-03T10:08:16.921Z,9.747297
2022-10-03T10:09:16.939Z,9.747352
2022-10-03T10:10:16.986Z,9.747276
2022-10-03T10:11:16.895Z,9.747183
2022-10-03T10:12:16.895Z,9.747218
2022-10-03T10:13:16.879Z,9.747269
2022-10-03T10:14:16.952Z,9.747394
2022-10-03T10:15:16.886Z,9.747332
2022-10-03T10:16:16.884Z,9.747575
2022-10-03T10:17:16.862Z,9.747540
2022-10-03T10:18:16.849Z,9.747546
2022-10-03T10:19:16.869Z,9.747465
2022-10-03T10:20:16.834Z,9.747262
2022-10-03T10:21:16.824Z,9.747194
2022-10-03T10:22:16.817Z,9.747191
2022-10-03T10:23:16.813Z,9.747338
2022-10-03T10:24:16.832Z,9.747322
2022-10-03T10:25:16.806Z,9.747466
2022-10-03T10:26:16.792Z,9.747615
2022-10-03T10:27:16.791Z,9.747430
2022-10-03T10:28:16.837Z,9.747294
2022-10-03T10:29:16.793Z,9.747293
2022-10-03T10:30:16.756Z,9.747370
2022-10-03T10:31:16.814Z,9.747424
2022-10-03T10:32:21.386Z,9.747438
2022-10-03T10:33:18.739Z,9.747362
2022-10-03T10:34:16.756Z,9.747364
2022-10-03T10:35:16.721Z,9.747458
2022-10-03T10:36:16.714Z,9.747479
2022-10-03T10:37:16.704Z,9.747470
2022-10-03T10:38:16.694Z,9.747490
2022-10-03T10:39:17.051Z,9.747338
2022-10-03T10:40:16.688Z,9.747446
2022-10-03T10:41:16.674Z,9.747403
2022-10-03T10:42:16.671Z,9.747387
2022-10-03T10:43:16.652Z,9.747388
2022-10-03T10:44:16.681Z,9.747377
2022-10-03T10:45:16.649Z,9.747282
2022-10-03T10:46:16.692Z,9.747384
2022-10-03T10:47:16.623Z,9.747346
2022-10-03T10:48:16.625Z,9.747052
2022-10-03T10:49:16.610Z,9.747468
2022-10-03T10:50:16.640Z,9.747489
2022-10-03T10:51:16.595Z,9.747587
2022-10-03T10:52:16.590Z,9.747474
2022-10-03T10:53:16.601Z,9.747447
2022-10-03T10:54:16.600Z,9.747440
2022-10-03T10:55:16.572Z,9.747414
2022-10-03T10:56:16.553Z,9.747602
2022-10-03T10:57:16.552Z,9.747584
2022-10-03T10:58:16.541Z,9.747397
2022-10-03T10:59:16.558Z,9.747355
2022-10-03T11:00:16.542Z,9.747422
2022-10-03T11:01:16.561Z,9.747362
2022-10-03T11:02:16.513Z,9.747481
2022-10-03T11:03:16.501Z,9.747330
2022-10-03T11:04:16.563Z,9.747369
2022-10-03T11:05:16.492Z,9.747355
2022-10-03T11:06:16.481Z,9.747225
2022-10-03T11:07:16.476Z,9.747327
2022-10-03T11:08:16.463Z,9.747363
2022-10-03T11:09:16.492Z,9.747398
2022-10-03T11:10:16.452Z,9.747388
2022-10-03T11:11:16.453Z,9.747387
2022-10-03T11:12:16.437Z,9.747438
2022-10-03T11:13:16.432Z,9.747464
2022-10-03T11:14:16.419Z,9.747487
2022-10-03T11:15:16.442Z,9.747508
2022-10-03T11:16:16.482Z,9.747449
2022-10-03T11:17:16.396Z,9.747371
2022-10-03T11:18:16.422Z,9.747374
2022-10-03T11:19:16.383Z,9.747213
2022-10-03T11:20:16.408Z,9.747212
2022-10-03T11:21:16.369Z,9.747293
2022-10-03T11:22:16.359Z,9.747400
2022-10-03T11:23:16.353Z,9.747329
2022-10-03T11:24:16.349Z,9.747467
2022-10-03T11:25:16.361Z,9.747512
2022-10-03T11:26:16.324Z,9.747470
2022-10-03T11:27:16.321Z,9.747487
2022-10-03T11:28:18.881Z,9.747423
2022-10-03T11:29:17.307Z,9.747629
2022-10-03T11:30:16.334Z,9.747322
2022-10-03T11:31:16.318Z,9.747301
2022-10-03T11:32:16.279Z,9.747478
2022-10-03T11:33:16.270Z,9.747503
2022-10-03T11:34:16.258Z,9.747232
2022-10-03T11:35:16.297Z,9.747293
2022-10-03T11:36:16.246Z,9.747455
2022-10-03T11:37:16.242Z,9.747462
2022-10-03T11:38:16.285Z,9.747458
2022-10-03T11:39:16.225Z,9.747570
2022-10-03T11:40:16.246Z,9.747586
2022-10-03T11:41:16.237Z,9.747536
2022-10-03T11:42:16.200Z,9.747388
2022-10-03T11:43:16.207Z,9.747401
2022-10-03T11:44:16.215Z,9.747246